Time;durP1;ratioP1;P1;durP2;ratioP2;P2;SDS_P1;SDS_P2;PMS_P1;PMS_P2;Temp;Humidity;BMP_temperature;BMP_pressure;BME280_temperature;BME280_humidity;BME280_pressure;Samples;Min_cycle;Max_cycle;Signal;HPM_P1;HPM_P2
2023/05/11 00:00:26;;;;;;;;;3.33;3.00;;;;;17.00;100.00;101171.19;5102742;27;45199;-74
2023/05/11 00:02:52;;;;;;;;;6.67;6.33;;;;;17.02;100.00;101179.06;5083491;27;54490;-75
2023/05/11 00:05:17;;;;;;;;;4.67;4.33;;;;;16.98;100.00;101173.28;5101857;27;46353;-74
2023/05/11 00:07:42;;;;;;;;;5.33;5.00;;;;;17.01;100.00;101183.63;5102376;27;45241;-74
2023/05/11 00:10:08;;;;;;;;;4.00;4.00;;;;;16.94;100.00;101177.38;5102443;27;45313;-74
2023/05/11 00:12:33;;;;;;;;;6.00;5.00;;;;;16.97;100.00;101178.84;5083790;27;46262;-74
2023/05/11 00:14:58;;;;;;;;;4.33;4.33;;;;;16.94;100.00;101171.22;5100768;27;45725;-74
2023/05/11 00:17:24;;;;;;;;;5.00;5.00;;;;;16.98;100.00;101177.81;5083772;27;45403;-74
2023/05/11 00:19:49;;;;;;;;;4.00;4.00;;;;;16.94;100.00;101166.66;5083583;27;45309;-74
2023/05/11 00:22:15;;;;;;;;;5.33;4.67;;;;;16.94;100.00;101166.66;5083400;27;46183;-74
2023/05/11 00:24:40;;;;;;;;;6.67;6.00;;;;;16.92;100.00;101163.38;5083687;27;48295;-74
2023/05/11 00:27:05;;;;;;;;;5.00;5.00;;;;;17.04;100.00;101167.06;5102056;27;45350;-74
2023/05/11 00:29:30;;;;;;;;;5.67;5.67;;;;;16.94;100.00;101168.53;5080237;28;45356;-74
2023/05/11 00:31:56;;;;;;;;;3.33;3.33;;;;;16.72;100.00;101141.88;5079766;28;55259;-74
2023/05/11 00:34:21;;;;;;;;;5.00;5.00;;;;;16.78;100.00;101157.16;5082668;27;51009;-74
2023/05/11 00:36:46;;;;;;;;;4.67;4.33;;;;;16.71;100.00;101151.81;5079929;28;45413;-74
2023/05/11 00:39:12;;;;;;;;;4.33;4.33;;;;;16.58;100.00;101136.50;5099920;27;45349;-74
2023/05/11 00:41:38;;;;;;;;;4.00;3.33;;;;;16.64;100.00;101145.59;5101556;27;45318;-74
2023/05/11 00:44:03;;;;;;;;;5.33;5.33;;;;;16.62;100.00;101151.19;5101850;27;46472;-74
2023/05/11 00:46:30;;;;;;;;;4.33;4.33;;;;;16.58;100.00;101136.50;5101465;27;45169;-74
2023/05/11 00:48:55;;;;;;;;;6.67;3.67;;;;;16.61;100.00;101154.06;5082759;27;45374;-75
2023/05/11 00:51:21;;;;;;;;;4.00;4.00;;;;;16.56;100.00;101151.16;5100828;27;45534;-75
2023/05/11 00:53:47;;;;;;;;;3.33;3.00;;;;;16.53;100.00;101153.19;5082975;27;47906;-74
2023/05/11 00:56:12;;;;;;;;;5.67;5.33;;;;;16.55;100.00;101149.50;5100395;27;45263;-74
2023/05/11 00:58:38;;;;;;;;;4.67;4.67;;;;;16.52;100.00;101143.50;5100189;27;45366;-74
2023/05/11 01:01:03;;;;;;;;;4.33;4.33;;;;;16.49;100.00;101145.78;5101611;27;45396;-74
2023/05/11 01:03:30;;;;;;;;;3.33;3.33;;;;;16.49;100.00;101138.56;5101430;27;45407;-75
2023/05/11 01:06:09;;;;;;;;;3.33;3.33;;;;;16.61;100.00;101148.69;5100946;27;45383;-74
2023/05/11 01:08:44;;;;;;;;;4.00;4.00;;;;;16.57;100.00;101148.25;5083003;27;45522;-74
2023/05/11 01:11:12;;;;;;;;;5.33;5.33;;;;;16.65;100.00;101153.41;5101384;27;45508;-74
2023/05/11 01:14:03;;;;;;;;;2.33;2.33;;;;;16.67;100.00;101142.47;5099734;27;47458;-74
2023/05/11 01:16:33;;;;;;;;;2.67;2.67;;;;;16.70;100.00;101133.22;5082840;27;45252;-74
2023/05/11 01:19:42;;;;;;;;;3.33;3.33;;;;;16.75;100.00;101139.63;5101172;27;45349;-74
2023/05/11 01:22:34;;;;;;;;;6.00;4.67;;;;;16.81;100.00;101134.44;5080717;27;45713;-74
2023/05/11 01:25:18;;;;;;;;;4.33;4.00;;;;;16.85;100.00;101146.44;5084683;27;45517;-74
2023/05/11 01:28:19;;;;;;;;;4.33;4.33;;;;;16.87;100.00;101139.81;5100502;27;45496;-74
2023/05/11 01:30:50;;;;;;;;;5.67;5.67;;;;;16.90;100.00;101138.56;5080674;28;45212;-74
2023/05/11 01:33:22;;;;;;;;;6.33;5.33;;;;;16.87;100.00;101136.31;5080441;28;45466;-74
2023/05/11 01:35:52;;;;;;;;;7.67;6.33;;;;;16.91;100.00;101135.69;5079856;28;45342;-74
2023/05/11 01:38:21;;;;;;;;;7.00;6.33;;;;;16.91;100.00;101135.69;5061944;28;45727;-74
2023/05/11 01:40:53;;;;;;;;;7.33;5.67;;;;;16.97;100.00;101142.06;5062428;28;45252;-74
2023/05/11 01:43:27;;;;;;;;;6.00;6.00;;;;;16.95;100.00;101138.78;5062145;28;46945;-74
2023/05/11 01:45:57;;;;;;;;;6.33;6.33;;;;;16.99;100.00;101142.72;5061828;28;47550;-74
2023/05/11 01:48:27;;;;;;;;;6.00;6.00;;;;;17.01;100.00;101153.25;5080336;28;45329;-74
2023/05/11 01:50:58;;;;;;;;;5.00;5.00;;;;;16.98;100.00;101146.44;5079982;28;45356;-74
2023/05/11 01:53:26;;;;;;;;;4.67;4.33;;;;;17.04;100.00;101150.94;5080122;28;45591;-74
2023/05/11 01:55:54;;;;;;;;;5.00;5.00;;;;;16.99;100.00;101148.06;5061736;28;47288;-74
2023/05/11 01:58:22;;;;;;;;;7.33;6.00;;;;;16.97;100.00;101144.75;5079996;28;45196;-74
2023/05/11 02:00:48;;;;;;;;;6.67;6.00;;;;;17.05;100.00;101157.16;5080360;28;45231;-74
2023/05/11 02:03:15;;;;;;;;;5.67;5.67;;;;;17.04;100.00;101156.31;5061679;28;45511;-74
2023/05/11 02:05:42;;;;;;;;;5.33;5.33;;;;;16.98;100.00;101142.91;5079732;28;45359;-74
2023/05/11 02:08:10;;;;;;;;;6.00;6.00;;;;;17.01;100.00;101153.25;5079909;28;45313;-74
2023/05/11 02:10:38;;;;;;;;;8.67;7.00;;;;;17.06;100.00;101163.38;5061831;28;45263;-74
2023/05/11 02:13:04;;;;;;;;;5.00;5.00;;;;;17.00;100.00;101157.78;5061680;28;46096;-74
2023/05/11 02:15:32;;;;;;;;;6.33;6.33;;;;;17.03;100.00;101162.72;5079775;28;45304;-74
2023/05/11 02:17:58;;;;;;;;;7.00;7.00;;;;;16.97;100.00;101157.38;5061495;28;45331;-75
2023/05/11 02:20:25;;;;;;;;;5.00;5.00;;;;;16.97;100.00;101154.69;5061291;28;45251;-74
2023/05/11 02:22:52;;;;;;;;;6.33;6.33;;;;;17.00;100.00;101162.34;5079795;28;45479;-74
2023/05/11 02:25:18;;;;;;;;;8.33;6.33;;;;;16.99;100.00;101164.19;5079761;28;45315;-74
2023/05/11 02:27:44;;;;;;;;;8.00;8.00;;;;;16.96;100.00;101155.72;5079570;28;45322;-74
2023/05/11 02:30:10;;;;;;;;;5.33;5.00;;;;;16.99;100.00;101169.56;5077180;27;45401;-74
2023/05/11 02:32:41;;;;;;;;;7.00;6.67;;;;;17.02;100.00;101173.69;5100132;27;45392;-74
2023/05/11 02:35:14;;;;;;;;;7.33;7.33;;;;;16.99;100.00;101169.56;5081219;27;47420;-74
2023/05/11 02:37:43;;;;;;;;;5.33;5.33;;;;;16.98;100.00;101173.28;5100153;27;45745;-74
2023/05/11 02:40:24;;;;;;;;;7.33;7.33;;;;;16.96;100.00;101167.28;5103309;27;45402;-74
2023/05/11 02:42:55;;;;;;;;;10.67;8.00;;;;;16.95;100.00;101168.31;5103498;27;45485;-74
2023/05/11 02:45:22;;;;;;;;;9.00;8.67;;;;;16.96;100.00;101171.81;5103658;27;45388;-74
2023/05/11 02:47:53;;;;;;;;;8.00;7.33;;;;;16.86;100.00;101151.59;5103469;27;45276;-74
2023/05/11 02:50:21;;;;;;;;;10.00;10.00;;;;;16.94;100.00;101168.53;5103437;27;45339;-74
2023/05/11 02:52:48;;;;;;;;;8.67;8.00;;;;;16.91;100.00;101161.69;5103559;27;45421;-74
2023/05/11 02:55:16;;;;;;;;;8.00;8.00;;;;;16.97;100.00;101170.81;5084989;27;48490;-74
2023/05/11 02:57:43;;;;;;;;;7.67;7.67;;;;;16.91;100.00;101154.47;5103438;27;45359;-75
2023/05/11 03:00:09;;;;;;;;;7.00;6.33;;;;;16.97;100.00;101160.06;5085066;27;45413;-75
2023/05/11 03:02:35;;;;;;;;;10.33;8.33;;;;;16.98;100.00;101159.84;5084934;27;46494;-74
2023/05/11 03:05:00;;;;;;;;;6.33;6.00;;;;;17.00;100.00;101156.97;5084140;27;59313;-74
2023/05/11 03:07:26;;;;;;;;;6.67;6.67;;;;;16.97;100.00;101154.69;5103149;27;45311;-74
2023/05/11 03:09:51;;;;;;;;;7.33;7.00;;;;;17.00;100.00;101155.09;5103551;27;45385;-74
2023/05/11 03:12:17;;;;;;;;;7.00;7.00;;;;;16.96;100.00;101144.97;5084866;27;46208;-74
2023/05/11 03:14:43;;;;;;;;;8.67;7.00;;;;;17.03;100.00;101153.88;5103380;27;45316;-75
2023/05/11 03:17:11;;;;;;;;;6.00;6.00;;;;;17.03;100.00;101153.88;5103193;27;45214;-74
2023/05/11 03:19:37;;;;;;;;;6.33;6.33;;;;;16.98;100.00;101148.28;5084492;27;45357;-74
2023/05/11 03:22:03;;;;;;;;;6.67;6.67;;;;;17.00;100.00;101146.22;5084523;27;46076;-74
2023/05/11 03:24:29;;;;;;;;;6.00;6.00;;;;;16.92;100.00;101156.13;5102883;27;45550;-74
2023/05/11 03:26:56;;;;;;;;;9.00;8.00;;;;;16.92;100.00;101137.31;5102662;27;45326;-74
2023/05/11 03:29:26;;;;;;;;;6.67;6.67;;;;;16.95;100.00;101149.53;5102893;27;45361;-74
2023/05/11 03:31:53;;;;;;;;;8.00;8.00;;;;;17.29;100.00;101144.16;5080951;28;46402;-74
2023/05/11 03:34:19;;;;;;;;;7.67;6.33;;;;;16.99;100.00;101147.25;5101681;27;45437;-75
2023/05/11 03:36:47;;;;;;;;;7.00;7.00;;;;;17.04;100.00;101150.16;5102793;27;45366;-73
2023/05/11 03:39:15;;;;;;;;;6.67;6.67;;;;;17.00;100.00;101138.19;5102711;27;45268;-74
2023/05/11 03:41:43;;;;;;;;;8.00;8.00;;;;;17.04;100.00;101150.94;5080904;28;46140;-74
2023/05/11 03:44:11;;;;;;;;;7.33;6.00;;;;;17.02;100.00;101150.34;5082226;27;47339;-74
2023/05/11 03:46:42;;;;;;;;;5.67;5.67;;;;;17.04;100.00;101148.25;5102526;27;45299;-74
2023/05/11 03:49:08;;;;;;;;;4.67;4.67;;;;;17.03;100.00;101141.25;5102366;27;45272;-74
2023/05/11 03:51:35;;;;;;;;;7.00;5.67;;;;;17.05;100.00;101141.03;5080460;28;46469;-74
2023/05/11 03:54:00;;;;;;;;;5.00;4.67;;;;;17.03;100.00;101132.41;5099026;27;46180;-74
2023/05/11 03:56:26;;;;;;;;;5.00;5.00;;;;;17.06;100.00;101139.19;5102496;27;45354;-74
2023/05/11 03:58:52;;;;;;;;;7.00;6.00;;;;;16.97;100.00;101120.59;5102662;27;45468;-74
2023/05/11 04:01:17;;;;;;;;;7.00;7.00;;;;;16.93;100.00;101122.06;5102470;27;45485;-74
2023/05/11 04:03:50;;;;;;;;;8.00;7.00;;;;;17.02;100.00;101133.41;5102050;27;45318;-74
2023/05/11 04:06:16;;;;;;;;;10.00;8.00;;;;;16.99;100.00;101125.75;5102213;27;45329;-74
2023/05/11 04:08:41;;;;;;;;;8.33;8.00;;;;;17.01;100.00;101137.13;5080590;28;45350;-74
2023/05/11 04:11:07;;;;;;;;;7.00;6.33;;;;;17.03;100.00;101143.13;5099907;27;45330;-74
2023/05/11 04:13:33;;;;;;;;;8.67;8.67;;;;;16.86;100.00;101116.72;5102165;27;46316;-74
2023/05/11 04:15:58;;;;;;;;;11.00;7.33;;;;;16.94;100.00;101133.63;5102316;27;45600;-74
2023/05/11 04:18:23;;;;;;;;;7.00;7.00;;;;;16.91;100.00;101133.00;5102408;27;45555;-74
2023/05/11 04:20:49;;;;;;;;;4.67;4.67;;;;;16.96;100.00;101136.91;5101933;27;45418;-75
2023/05/11 04:23:14;;;;;;;;;5.67;5.67;;;;;16.90;100.00;101138.56;5102042;27;45755;-74
2023/05/11 04:25:39;;;;;;;;;5.00;5.00;;;;;16.86;100.00;101127.44;5102096;27;45236;-74
2023/05/11 04:28:05;;;;;;;;;4.33;4.33;;;;;16.91;100.00;101140.22;5081163;27;45273;-74
2023/05/11 04:30:30;;;;;;;;;7.33;7.33;;;;;16.82;100.00;101131.56;5101886;27;45230;-74
2023/05/11 04:32:55;;;;;;;;;7.00;6.33;;;;;16.92;100.00;101145.38;5101818;27;45238;-74
2023/05/11 04:35:21;;;;;;;;;6.00;6.00;;;;;16.89;100.00;101140.44;5083004;27;45570;-74
2023/05/11 04:37:46;;;;;;;;;8.33;6.33;;;;;16.96;100.00;101147.66;5102126;27;45309;-73
2023/05/11 04:40:12;;;;;;;;;5.00;4.33;;;;;16.96;100.00;101145.81;5083209;27;47207;-74
2023/05/11 04:42:37;;;;;;;;;9.33;8.00;;;;;16.93;100.00;101140.84;5101762;27;46553;-73
2023/05/11 04:45:03;;;;;;;;;4.33;3.33;;;;;16.92;100.00;101144.56;5101830;27;45356;-75
2023/05/11 04:47:28;;;;;;;;;6.33;6.33;;;;;16.97;100.00;101149.31;5101785;27;45313;-74
2023/05/11 04:49:53;;;;;;;;;9.00;7.00;;;;;16.99;100.00;101148.06;5083035;27;46920;-75
2023/05/11 04:52:19;;;;;;;;;4.33;4.33;;;;;16.98;100.00;101146.44;5101225;27;48939;-74
2023/05/11 04:54:44;;;;;;;;;8.00;7.33;;;;;16.98;100.00;101143.75;5101386;27;45382;-74
2023/05/11 04:57:09;;;;;;;;;7.00;6.00;;;;;16.97;100.00;101142.06;5099988;27;45319;-75
2023/05/11 04:59:34;;;;;;;;;6.00;5.67;;;;;17.02;100.00;101147.66;5100481;27;53380;-75
2023/05/11 05:02:00;;;;;;;;;5.67;5.67;;;;;17.00;100.00;101141.66;5099400;27;45678;-74
2023/05/11 05:04:25;;;;;;;;;11.33;10.00;;;;;17.12;100.00;101157.19;5100984;27;45397;-74
2023/05/11 05:06:50;;;;;;;;;2.00;2.00;;;;;17.14;100.00;101155.13;5100772;27;46511;-74
2023/05/11 05:09:16;;;;;;;;;7.67;6.33;;;;;17.15;100.00;101154.91;5101476;27;45494;-74
2023/05/11 05:11:41;;;;;;;;;8.00;6.00;;;;;17.23;100.00;101166.47;5082110;27;48203;-75
2023/05/11 05:14:07;;;;;;;;;7.00;6.67;;;;;17.20;100.00;101151.59;5100547;27;45248;-75
2023/05/11 05:16:32;;;;;;;;;7.67;7.33;;;;;17.29;100.00;101163.78;5082353;27;47481;-75
2023/05/11 05:18:57;;;;;;;;;8.33;8.00;;;;;17.35;100.00;101169.34;5100979;27;45332;-75
2023/05/11 05:21:23;;;;;;;;;5.00;5.00;;;;;17.34;100.00;101154.25;5082437;27;50548;-75
2023/05/11 05:23:48;;;;;;;;;8.00;7.00;;;;;17.37;100.00;101162.75;5101091;27;45386;-75
2023/05/11 05:26:14;;;;;;;;;7.33;7.00;;;;;17.39;100.00;101151.78;5100774;27;45277;-75
2023/05/11 05:28:39;;;;;;;;;7.00;7.00;;;;;17.42;100.00;101157.56;5082353;27;47321;-75
2023/05/11 05:31:05;;;;;;;;;9.00;9.00;;;;;17.49;100.00;101167.47;5100291;27;45557;-75
2023/05/11 05:33:30;;;;;;;;;10.67;9.33;;;;;17.52;100.00;101169.72;5088374;27;45371;-75
2023/05/11 05:35:55;;;;;;;;;10.00;9.00;;;;;17.51;100.00;101171.59;5091048;27;45394;-75
2023/05/11 05:38:21;;;;;;;;;10.00;8.33;;;;;17.49;100.00;101176.34;5099729;27;45274;-75
2023/05/11 05:40:46;;;;;;;;;8.33;8.33;;;;;17.51;100.00;101179.63;5100578;27;45388;-75
2023/05/11 05:43:12;;;;;;;;;8.33;8.33;;;;;17.65;100.00;101190.38;5101792;27;45197;-75
2023/05/11 05:45:37;;;;;;;;;9.67;9.67;;;;;17.60;100.00;101184.81;5101418;27;45282;-75
2023/05/11 05:48:04;;;;;;;;;8.67;8.67;;;;;17.62;100.00;101185.41;5080758;27;50142;-76
2023/05/11 05:50:30;;;;;;;;;8.00;7.00;;;;;17.70;100.00;101187.03;5081815;27;48139;-76
2023/05/11 05:52:55;;;;;;;;;12.33;10.00;;;;;17.69;100.00;101188.09;5100601;27;45240;-75
2023/05/11 05:55:21;;;;;;;;;10.00;10.00;;;;;17.67;100.00;101196.38;5100525;27;45357;-75
2023/05/11 05:57:46;;;;;;;;;9.00;9.00;;;;;17.58;100.00;101176.97;5098615;27;45431;-75
2023/05/11 06:00:12;;;;;;;;;13.00;13.00;;;;;17.62;100.00;101183.56;5091423;27;45417;-74
2023/05/11 06:02:38;;;;;;;;;8.33;8.00;;;;;17.63;100.00;101187.06;5099885;27;45297;-75
2023/05/11 06:05:03;;;;;;;;;11.00;10.67;;;;;17.69;100.00;101188.91;5098882;27;45500;-75
2023/05/11 06:07:28;;;;;;;;;10.67;8.67;;;;;17.72;100.00;101187.66;5100342;27;45215;-76
2023/05/11 06:09:54;;;;;;;;;10.67;10.67;;;;;17.75;100.00;101189.94;5081797;27;53744;-75
2023/05/11 06:12:19;;;;;;;;;12.67;10.67;;;;;17.82;100.00;101198.81;5100254;27;49116;-76
2023/05/11 06:14:45;;;;;;;;;11.00;10.67;;;;;17.79;100.00;101181.25;5100563;27;45219;-75
2023/05/11 06:17:10;;;;;;;;;12.00;11.00;;;;;17.84;100.00;101196.72;5100427;27;45188;-76
2023/05/11 06:19:35;;;;;;;;;13.67;13.33;;;;;17.78;100.00;101193.00;5099972;27;45289;-75
2023/05/11 06:22:01;;;;;;;;;11.67;11.33;;;;;17.76;100.00;101199.66;5100028;27;45259;-76
2023/05/11 06:24:26;;;;;;;;;13.33;13.33;;;;;17.74;100.00;101188.25;5100469;27;45627;-77
2023/05/11 06:26:51;;;;;;;;;8.33;8.33;;;;;17.79;100.00;101189.31;5099953;27;45458;-76
2023/05/11 06:29:18;;;;;;;;;10.33;10.33;;;;;17.73;100.00;101190.16;5100110;27;48102;-76
2023/05/11 06:31:44;;;;;;;;;10.67;10.00;;;;;17.76;100.00;101196.97;5100132;27;45425;-75
2023/05/11 06:34:09;;;;;;;;;13.67;11.33;;;;;17.78;100.00;101193.00;5100092;27;45444;-75
2023/05/11 06:36:35;;;;;;;;;10.67;10.67;;;;;17.92;100.00;101206.41;5099870;27;45454;-76
2023/05/11 06:39:00;;;;;;;;;17.67;14.00;;;;;17.96;100.00;101198.75;5100058;27;46098;-75
2023/05/11 06:41:26;;;;;;;;;14.00;12.33;;;;;17.96;100.00;101191.50;5081720;27;45312;-76
2023/05/11 06:43:51;;;;;;;;;12.33;11.00;;;;;18.04;100.00;101207.41;5100110;27;45329;-76
2023/05/11 06:46:16;;;;;;;;;11.67;10.67;;;;;18.06;100.00;101201.81;5100200;27;45491;-75
2023/05/11 06:48:42;;;;;;;;;11.67;11.00;;;;;18.08;100.00;101196.22;5081184;27;47843;-76
2023/05/11 06:51:11;;;;;;;;;9.33;9.00;;;;;18.14;100.00;101206.16;5099833;27;45286;-76
2023/05/11 06:53:37;;;;;;;;;13.67;12.00;;;;;18.15;100.00;101199.75;5100488;27;45280;-74
2023/05/11 06:56:02;;;;;;;;;12.00;10.00;;;;;18.45;100.00;101201.88;5094754;27;45465;-75
2023/05/11 06:58:28;;;;;;;;;12.67;12.00;;;;;18.68;100.00;101203.19;5079295;28;46196;-75
2023/05/11 07:00:53;;;;;;;;;13.00;12.00;;;;;18.79;100.00;101209.72;5079339;28;45429;-73
2023/05/11 07:03:19;;;;;;;;;12.33;12.00;;;;;18.84;100.00;101203.69;5079037;28;45311;-73
2023/05/11 07:05:44;;;;;;;;;10.00;10.00;;;;;18.57;100.00;101196.63;5078994;28;45406;-75
2023/05/11 07:08:09;;;;;;;;;14.33;14.00;;;;;18.44;100.00;101194.00;5078766;28;58073;-74
2023/05/11 07:10:35;;;;;;;;;10.00;10.00;;;;;18.46;100.00;101200.00;5078837;28;45401;-73
2023/05/11 07:13:00;;;;;;;;;12.00;9.33;;;;;18.66;100.00;101205.25;5078977;28;45333;-74
2023/05/11 07:15:25;;;;;;;;;11.33;11.33;;;;;18.60;100.00;101201.56;5078986;28;45292;-75
2023/05/11 07:17:51;;;;;;;;;9.00;9.00;;;;;18.56;100.00;101205.75;5079005;28;45344;-75
2023/05/11 07:20:16;;;;;;;;;13.00;13.00;;;;;18.56;100.00;101194.97;5078758;28;45338;-75
2023/05/11 07:22:42;;;;;;;;;10.67;10.00;;;;;18.54;100.00;101200.56;5091648;27;45442;-73
2023/05/11 07:25:08;;;;;;;;;10.67;10.67;;;;;18.59;100.00;101212.56;5100929;27;45264;-75
2023/05/11 07:27:34;;;;;;;;;10.67;10.00;;;;;18.59;100.00;101213.38;5101721;27;45224;-74
2023/05/11 07:29:59;;;;;;;;;13.33;12.33;;;;;18.61;100.00;101208.59;5101911;27;45213;-73
2023/05/11 07:32:27;;;;;;;;;11.67;10.33;;;;;18.63;100.00;101206.53;5083881;27;45181;-74
2023/05/11 07:34:53;;;;;;;;;8.67;8.67;;;;;19.09;100.00;101211.00;5083452;27;45594;-73
2023/05/11 07:37:18;;;;;;;;;14.00;12.67;;;;;19.05;100.00;101203.31;5102359;27;45421;-73
2023/05/11 07:39:43;;;;;;;;;9.67;9.67;;;;;18.76;100.00;101197.53;5102594;27;45320;-74
2023/05/11 07:42:09;;;;;;;;;11.33;10.33;;;;;18.72;100.00;101214.31;5081982;27;45661;-75
2023/05/11 07:44:34;;;;;;;;;11.67;11.00;;;;;18.66;100.00;101214.16;5097654;27;45384;-74
2023/05/11 07:46:59;;;;;;;;;7.67;7.67;;;;;18.60;100.00;101209.66;5080497;27;46560;-75
2023/05/11 07:49:27;;;;;;;;;8.67;8.67;;;;;18.61;100.00;101215.84;5102100;27;50080;-74
2023/05/11 07:51:53;;;;;;;;;11.00;10.00;;;;;18.50;100.00;101193.16;5080385;28;45392;-75
2023/05/11 07:54:18;;;;;;;;;11.00;10.00;;;;;18.67;100.00;101214.97;5101597;27;45343;-74
2023/05/11 07:56:43;;;;;;;;;10.33;9.00;;;;;18.73;100.00;101216.81;5102497;27;46528;-73
2023/05/11 07:59:09;;;;;;;;;9.33;9.33;;;;;18.79;100.00;101212.41;5102550;27;45271;-74
2023/05/11 08:01:34;;;;;;;;;11.33;10.00;;;;;18.79;100.00;101207.84;5102775;27;45248;-75
2023/05/11 08:04:00;;;;;;;;;8.67;8.67;;;;;18.84;100.00;101214.44;5080513;27;46374;-75
2023/05/11 08:06:25;;;;;;;;;14.00;13.33;;;;;18.81;100.00;101210.34;5099634;27;45715;-74
2023/05/11 08:08:50;;;;;;;;;11.33;10.33;;;;;18.92;100.00;101208.81;5083585;27;45346;-74
2023/05/11 08:11:16;;;;;;;;;13.00;11.00;;;;;18.95;100.00;101199.47;5069685;28;45377;-73
2023/05/11 08:13:41;;;;;;;;;11.67;10.67;;;;;19.09;100.00;101211.00;5063551;28;47381;-74
2023/05/11 08:16:07;;;;;;;;;13.33;11.33;;;;;19.08;100.00;101199.38;5093381;27;45302;-74
2023/05/11 08:18:32;;;;;;;;;9.67;9.00;;;;;19.11;100.00;101204.34;5101701;27;45252;-75
2023/05/11 08:20:58;;;;;;;;;11.00;11.00;;;;;19.16;100.00;101209.06;5101818;27;45582;-74
2023/05/11 08:23:23;;;;;;;;;12.67;12.67;;;;;19.18;100.00;101198.88;5101816;27;45461;-74
2023/05/11 08:25:50;;;;;;;;;10.00;9.00;;;;;19.15;100.00;101186.69;5083202;27;45815;-75
2023/05/11 08:28:17;;;;;;;;;14.67;13.67;;;;;19.18;100.00;101188.09;5101843;27;45369;-74
2023/05/11 08:30:42;;;;;;;;;14.00;13.00;;;;;19.27;100.00;101200.25;5081627;28;45378;-74
2023/05/11 08:33:07;;;;;;;;;13.67;12.67;;;;;19.35;100.00;101201.00;5081387;28;45474;-75
2023/05/11 08:35:33;;;;;;;;;12.00;10.67;;;;;19.42;100.00;101207.16;5062063;28;46052;-74
2023/05/11 08:37:58;;;;;;;;;15.67;13.00;;;;;19.37;100.00;101190.84;5068105;27;50321;-74
2023/05/11 08:40:25;;;;;;;;;11.33;11.33;;;;;19.26;100.00;101165.44;5100950;27;45505;-74
2023/05/11 08:42:55;;;;;;;;;13.67;13.33;;;;;19.50;100.00;101200.66;5101950;27;45377;-73
2023/05/11 08:45:22;;;;;;;;;12.33;12.33;;;;;19.50;100.00;101200.66;5101575;27;46156;-74
2023/05/11 08:47:48;;;;;;;;;13.00;12.00;;;;;19.54;100.00;101204.53;5101559;27;45352;-74
2023/05/11 08:50:13;;;;;;;;;15.00;12.00;;;;;19.55;100.00;101209.72;5101468;27;45260;-74
2023/05/11 08:52:39;;;;;;;;;11.33;11.33;;;;;19.61;100.00;101212.56;5101584;27;45289;-74
2023/05/11 08:55:06;;;;;;;;;13.67;13.33;;;;;19.63;100.00;101216.69;5101446;27;46305;-75
2023/05/11 08:57:33;;;;;;;;;10.67;9.00;;;;;19.64;100.00;101207.53;5101523;27;45332;-74
2023/05/11 09:00:01;;;;;;;;;14.67;13.00;;;;;19.64;97.77;101209.44;5083286;27;45442;-74
2023/05/11 09:02:27;;;;;;;;;11.67;11.33;;;;;19.46;99.55;101191.38;5082930;27;47387;-73
2023/05/11 09:04:53;;;;;;;;;13.00;12.00;;;;;19.61;100.00;101207.19;5101062;27;46247;-74
2023/05/11 09:07:20;;;;;;;;;12.67;12.67;;;;;19.74;100.00;101208.91;5082733;27;45281;-73
2023/05/11 09:09:46;;;;;;;;;11.33;11.00;;;;;19.84;100.00;101213.78;5083275;27;45418;-74
2023/05/11 09:12:12;;;;;;;;;15.00;13.33;;;;;19.87;99.04;101208.75;5082769;27;46498;-74
2023/05/11 09:14:37;;;;;;;;;14.67;14.33;;;;;19.89;100.00;101198.56;5082794;27;46989;-74
2023/05/11 09:17:03;;;;;;;;;19.00;16.00;;;;;19.97;100.00;101205.53;5101129;27;45330;-73
2023/05/11 09:19:29;;;;;;;;;13.33;11.00;;;;;20.01;100.00;101200.53;5101109;27;45240;-74
2023/05/11 09:21:54;;;;;;;;;12.00;11.00;;;;;20.03;98.41;101201.94;5101053;27;45453;-74
2023/05/11 09:24:20;;;;;;;;;11.33;11.33;;;;;20.01;99.57;101205.94;5082419;27;47757;-74
2023/05/11 09:26:46;;;;;;;;;14.33;13.00;;;;;20.04;99.18;101198.22;5082639;27;45296;-74
2023/05/11 09:29:11;;;;;;;;;11.00;9.00;;;;;20.10;97.38;101203.75;5100848;27;45389;-73
2023/05/11 09:31:38;;;;;;;;;12.33;12.33;;;;;20.12;98.51;101207.03;5100737;27;45476;-73
2023/05/11 09:34:16;;;;;;;;;12.00;11.33;;;;;20.20;96.23;101208.63;5082003;27;47117;-73
2023/05/11 09:36:46;;;;;;;;;11.00;10.33;;;;;20.19;97.61;101205.09;5099571;27;45310;-74
2023/05/11 09:39:13;;;;;;;;;12.00;11.67;;;;;20.22;96.47;101203.78;5100668;27;45247;-74
2023/05/11 09:41:38;;;;;;;;;11.00;11.00;;;;;20.21;98.52;101197.59;5100514;27;45459;-73
2023/05/11 09:44:11;;;;;;;;;13.00;10.00;;;;;20.34;98.90;101199.28;5100300;27;46325;-73
2023/05/11 09:46:43;;;;;;;;;11.33;10.00;;;;;20.47;98.47;101208.25;5100639;27;45344;-74
2023/05/11 09:49:09;;;;;;;;;15.33;12.67;;;;;20.52;97.66;101195.69;5100040;27;45389;-74
2023/05/11 09:51:39;;;;;;;;;9.33;9.33;;;;;20.60;98.28;101191.84;5100415;27;45400;-74
2023/05/11 09:54:21;;;;;;;;;9.33;9.33;;;;;20.66;96.27;101187.41;5081993;27;47208;-74
2023/05/11 09:56:53;;;;;;;;;12.33;11.00;;;;;20.73;96.35;101190.81;5099476;27;45330;-73
2023/05/11 09:59:38;;;;;;;;;11.33;9.67;;;;;20.67;94.04;101175.53;5080861;27;45296;-74
2023/05/11 10:02:25;;;;;;;;;13.33;12.33;;;;;20.60;92.87;101182.94;5081578;27;46149;-74
2023/05/11 10:04:51;;;;;;;;;11.33;10.67;;;;;20.48;94.96;101188.28;5099865;27;45373;-73
2023/05/11 10:07:32;;;;;;;;;9.00;9.00;;;;;21.02;92.94;101177.50;5097342;27;45423;-74
2023/05/11 10:10:01;;;;;;;;;13.33;10.33;;;;;20.44;96.00;101180.66;5081746;27;45402;-74
2023/05/11 10:12:29;;;;;;;;;7.67;7.00;;;;;20.27;97.15;101175.09;5100160;27;45312;-74
2023/05/11 10:15:02;;;;;;;;;9.33;9.33;;;;;20.24;96.50;101178.25;5081800;27;47529;-73
2023/05/11 10:17:29;;;;;;;;;9.00;7.67;;;;;20.20;97.25;101176.22;5100376;27;45313;-74
2023/05/11 10:19:58;;;;;;;;;10.67;10.33;;;;;20.30;95.04;101177.31;5081734;27;45256;-75
2023/05/11 10:22:27;;;;;;;;;12.33;9.33;;;;;20.48;94.93;101181.03;5081847;27;47494;-74
2023/05/11 10:24:53;;;;;;;;;9.00;8.67;;;;;20.64;95.49;101179.53;5099803;27;46230;-75
2023/05/11 10:27:20;;;;;;;;;9.67;9.67;;;;;20.76;94.32;101184.97;5100041;27;45378;-75
2023/05/11 10:29:46;;;;;;;;;11.00;9.67;;;;;20.77;92.68;101166.88;5099931;27;45314;-76
2023/05/11 10:32:12;;;;;;;;;11.33;10.00;;;;;20.77;94.40;101175.78;5100068;27;45471;-75
2023/05/11 10:34:38;;;;;;;;;8.00;7.00;;;;;20.76;91.74;101170.63;5099787;27;45337;-74
2023/05/11 10:37:05;;;;;;;;;7.00;6.00;;;;;20.65;92.60;101177.66;5097844;27;45382;-74
2023/05/11 10:39:31;;;;;;;;;7.67;7.33;;;;;20.62;92.16;101172.72;5099534;27;45330;-75
2023/05/11 10:42:00;;;;;;;;;6.67;6.67;;;;;20.66;92.18;101177.44;5080983;27;47163;-73
2023/05/11 10:44:48;;;;;;;;;10.67;9.33;;;;;20.71;92.41;101184.00;5060280;28;47324;-75
2023/05/11 10:47:21;;;;;;;;;13.00;11.00;;;;;20.78;92.88;101169.34;5084349;27;45385;-76
2023/05/11 10:50:18;;;;;;;;;8.00;7.67;;;;;20.75;91.68;101166.28;5079245;28;45341;-74
2023/05/11 10:52:59;;;;;;;;;8.00;8.00;;;;;20.69;89.63;101157.25;5079219;28;45796;-74
2023/05/11 10:56:09;;;;;;;;;8.67;6.67;;;;;20.75;92.01;101155.47;5083922;27;45543;-75
2023/05/11 10:58:42;;;;;;;;;7.00;7.00;;;;;20.82;91.84;101167.00;5079389;28;45343;-74
2023/05/11 11:01:29;;;;;;;;;10.00;9.00;;;;;20.85;91.57;101168.41;5082662;28;45373;-74
2023/05/11 11:03:56;;;;;;;;;7.33;7.33;;;;;20.85;92.55;101152.19;5082628;28;45483;-74
2023/05/11 11:06:28;;;;;;;;;10.00;7.33;;;;;20.85;92.29;101160.28;5083954;27;45532;-74
2023/05/11 11:09:06;;;;;;;;;10.00;8.33;;;;;20.93;90.56;101160.84;5102975;27;45293;-75
2023/05/11 11:11:50;;;;;;;;;8.67;8.67;;;;;20.97;90.89;101171.97;5094615;27;45342;-76
2023/05/11 11:14:18;;;;;;;;;9.00;9.00;;;;;20.94;89.20;101172.44;5103181;27;45380;-75